aviador You're here:

SAVC Decoded Metar

COMODORO RIVADAVIA in ARGENTINA
Report Time2017-09-23 08:00:00
UTC Time2017-09-23 09:05:39
Flight Rules vfr VFR
WindCalm
Visibility9999 m
Phenomena:N/A
Clouds:N/A
Expected CloudBase > 1,600 ft AGL from Temp-Dew spread
CeilingNone
Temp08°C (ISA -7)
Dew Point04°C (76% RH)
AAT6.7°C
QNH1015 hPa
Density Alt-610 ft
Elevation151 ft
Report Wrong Elevation
Raw Report
METAR SAVC 230800Z 00000KT CAVOK 08/04 Q1015=

Extra information for SAVC:More info

Metar Taf Metar & Taf Last 4 Metars F.Rules Stats Wind Profile Meteogram Temp Stats Airport Information Weather charts Add Link Nearby VenuesMetar ALERT Operation Metar Decoded Social comments